Terminal Aerodrome Forecast
Issued by NWS Wilmington, OH

Current Version | Previous Version | Graphics & Text | Print | Product List | Glossary On
Versions: 1 2 3 4 5 6 7 8 9 10 11 12 13 14 15 16 17 18 19 20 21 22
000
FTUS41 KILN 251500 AAA
TAFDAY
TAF AMD
KDAY 251502Z 2515/2612 24015G25KT P6SM BKN021 OVC035
     FM252200 23016G26KT P6SM SCT035 BKN150
     FM260000 17008KT P6SM BKN200
     FM260900 33005KT 4SM -SHRA BR OVC018=

USA.gov is the U.S. government's official web portal to all federal, state and local government web resources and services.